createdAt,value
2018-04-18T00:00:26.800Z,9.03
2018-04-18T00:02:57.805Z,9.67
2018-04-18T00:05:28.844Z,9.67
2018-04-18T00:07:59.893Z,10.67
2018-04-18T00:10:30.935Z,7.97
2018-04-18T00:13:01.954Z,9.40
2018-04-18T00:15:32.964Z,10.00
2018-04-18T00:18:03.998Z,10.33
2018-04-18T00:20:35.006Z,9.23
2018-04-18T00:23:06.058Z,9.63
2018-04-18T00:25:37.102Z,8.27
2018-04-18T00:28:08.153Z,10.10
2018-04-18T00:30:39.165Z,11.00
2018-04-18T00:33:10.208Z,9.67
2018-04-18T00:35:41.231Z,9.30
2018-04-18T00:38:12.304Z,10.47
2018-04-18T00:40:43.314Z,11.60
2018-04-18T00:43:14.319Z,10.57
2018-04-18T00:45:45.310Z,10.23
2018-04-18T00:48:16.385Z,10.80
2018-04-18T00:50:47.417Z,10.93
2018-04-18T00:53:18.463Z,12.43
2018-04-18T00:55:49.522Z,12.50
2018-04-18T00:58:20.529Z,11.97
2018-04-18T01:00:51.619Z,12.20
2018-04-18T01:03:22.625Z,11.40
2018-04-18T01:05:53.668Z,11.20
2018-04-18T01:08:24.684Z,11.40
2018-04-18T01:10:55.739Z,12.00
2018-04-18T01:13:26.788Z,12.10
2018-04-18T01:15:57.786Z,12.63
2018-04-18T01:18:28.822Z,13.43
2018-04-18T01:20:59.829Z,12.37
2018-04-18T01:23:30.844Z,13.30
2018-04-18T01:26:01.842Z,12.40
2018-04-18T01:28:32.851Z,12.57
2018-04-18T01:31:03.924Z,12.57
2018-04-18T01:33:34.934Z,13.27
2018-04-18T01:36:05.967Z,12.77
2018-04-18T01:38:37.077Z,12.60
2018-04-18T01:41:08.106Z,12.30
2018-04-18T01:43:39.133Z,12.90
2018-04-18T01:46:10.132Z,14.23
2018-04-18T01:48:41.146Z,12.90
2018-04-18T01:51:12.183Z,13.73
2018-04-18T01:53:43.214Z,12.43
2018-04-18T01:56:14.233Z,12.33
2018-04-18T01:58:45.295Z,12.03
2018-04-18T02:01:16.353Z,10.87
2018-04-18T02:03:47.388Z,12.03
2018-04-18T02:06:18.410Z,12.07
2018-04-18T02:08:49.432Z,11.13
2018-04-18T02:11:20.482Z,11.37
2018-04-18T02:13:51.516Z,12.40
2018-04-18T02:16:23.190Z,12.30
2018-04-18T02:18:54.219Z,12.83
2018-04-18T02:21:25.224Z,12.57
2018-04-18T02:23:56.284Z,11.97
2018-04-18T02:26:27.276Z,12.30
2018-04-18T02:28:58.275Z,12.53
2018-04-18T02:31:29.599Z,12.83
2018-04-18T02:34:00.651Z,12.10
2018-04-18T02:36:31.666Z,12.97
2018-04-18T02:39:02.765Z,13.30
2018-04-18T02:41:33.807Z,13.37
2018-04-18T02:44:04.856Z,13.43
2018-04-18T02:46:35.868Z,13.43
2018-04-18T02:49:06.937Z,12.97
2018-04-18T02:51:37.973Z,12.60
2018-04-18T02:54:09.005Z,14.07
2018-04-18T02:56:40.030Z,11.53
2018-04-18T02:59:10.995Z,12.53
2018-04-18T03:01:42.005Z,13.67
2018-04-18T03:04:13.072Z,12.23
2018-04-18T03:06:44.120Z,12.60
2018-04-18T03:09:15.170Z,11.73
2018-04-18T03:11:46.199Z,13.23
2018-04-18T03:14:17.210Z,12.53
2018-04-18T03:16:48.250Z,13.77
2018-04-18T03:19:19.212Z,12.17
2018-04-18T03:21:50.199Z,12.17
2018-04-18T03:24:21.207Z,12.43
2018-04-18T03:26:52.539Z,12.20
2018-04-18T03:29:23.560Z,12.20
2018-04-18T03:31:54.607Z,12.37
2018-04-18T03:34:25.641Z,11.80
2018-04-18T03:36:56.624Z,11.00
2018-04-18T03:39:27.660Z,12.67
2018-04-18T03:41:58.663Z,12.87
2018-04-18T03:44:29.697Z,12.20
2018-04-18T03:47:00.687Z,12.40
2018-04-18T03:49:31.675Z,11.47
2018-04-18T03:52:02.744Z,12.03
2018-04-18T03:54:33.794Z,11.73
2018-04-18T03:57:04.830Z,11.47
2018-04-18T03:59:35.871Z,11.97
2018-04-18T04:02:06.905Z,10.90
2018-04-18T04:04:37.921Z,11.43
2018-04-18T04:07:08.922Z,11.47
2018-04-18T04:09:39.901Z,12.13
2018-04-18T04:12:10.865Z,12.37
2018-04-18T04:14:41.880Z,14.20
2018-04-18T04:17:25.248Z,12.90
2018-04-18T04:20:08.537Z,13.10
2018-04-18T04:22:51.729Z,12.40
2018-04-18T04:25:23.245Z,12.63
2018-04-18T04:27:54.232Z,12.60
2018-04-18T04:30:26.070Z,13.00
2018-04-18T04:32:57.137Z,12.83
2018-04-18T04:35:28.122Z,12.80
2018-04-18T04:37:59.215Z,13.37
2018-04-18T04:40:30.210Z,13.73
2018-04-18T04:43:01.246Z,13.03
2018-04-18T04:45:32.281Z,14.53
2018-04-18T04:48:03.324Z,13.23
2018-04-18T04:50:34.349Z,14.20
2018-04-18T04:53:05.352Z,14.10
2018-04-18T04:55:36.324Z,12.03
2018-04-18T04:58:07.366Z,11.73
2018-04-18T05:00:38.383Z,10.00
2018-04-18T05:03:09.384Z,11.00
2018-04-18T05:05:40.401Z,10.57
2018-04-18T05:08:11.391Z,11.67
2018-04-18T05:10:42.433Z,11.93
2018-04-18T05:13:13.450Z,11.47
2018-04-18T05:15:44.466Z,10.10
2018-04-18T05:18:15.562Z,10.27
2018-04-18T05:20:46.595Z,10.23
2018-04-18T05:23:17.634Z,10.17
2018-04-18T05:25:48.708Z,16.13
2018-04-18T05:28:19.763Z,10.37
2018-04-18T05:30:50.802Z,9.50
2018-04-18T05:33:21.826Z,9.40
2018-04-18T05:35:52.870Z,9.67
2018-04-18T05:38:23.979Z,9.37
2018-04-18T05:40:55.062Z,9.80
2018-04-18T05:43:26.093Z,9.70
2018-04-18T05:45:57.045Z,10.27
2018-04-18T05:48:28.039Z,10.30
2018-04-18T05:50:59.067Z,10.47
2018-04-18T05:53:30.092Z,10.67
2018-04-18T05:56:01.126Z,13.50
2018-04-18T05:58:32.149Z,10.90
2018-04-18T06:01:03.142Z,11.03
2018-04-18T06:03:34.198Z,12.23
2018-04-18T06:06:05.166Z,11.57
2018-04-18T06:08:36.194Z,11.37
2018-04-18T06:11:07.167Z,10.03
2018-04-18T06:13:38.238Z,9.80
2018-04-18T06:16:09.225Z,10.67
2018-04-18T06:18:40.225Z,10.50
2018-04-18T06:21:11.241Z,10.30
2018-04-18T06:23:42.265Z,11.03
2018-04-18T06:26:13.241Z,11.17
2018-04-18T06:28:44.211Z,10.83
2018-04-18T06:31:15.277Z,11.57
2018-04-18T06:33:46.270Z,12.03
2018-04-18T06:36:17.293Z,11.17
2018-04-18T06:38:48.276Z,11.07
2018-04-18T06:41:19.339Z,10.93
2018-04-18T06:43:50.318Z,9.87
2018-04-18T06:46:21.308Z,9.77
2018-04-18T06:48:52.317Z,11.63
2018-04-18T06:51:23.325Z,9.13
2018-04-18T06:53:54.374Z,8.27
2018-04-18T06:56:25.389Z,7.83
2018-04-18T06:58:56.359Z,7.63
2018-04-18T07:01:27.407Z,7.63
2018-04-18T07:03:58.352Z,7.67
2018-04-18T07:06:29.416Z,6.80
2018-04-18T07:09:00.438Z,8.30
2018-04-18T07:11:31.501Z,7.00
2018-04-18T07:14:02.537Z,7.10
2018-04-18T07:16:33.584Z,7.18
2018-04-18T07:19:04.588Z,6.65
2018-04-18T07:21:35.868Z,6.57
2018-04-18T07:24:06.915Z,7.07
2018-04-18T07:26:37.942Z,7.37
2018-04-18T07:29:09.050Z,7.00
2018-04-18T07:31:40.064Z,7.43
2018-04-18T07:34:11.106Z,7.50
2018-04-18T07:36:42.114Z,7.53
2018-04-18T07:39:13.113Z,6.85
2018-04-18T07:41:44.104Z,7.62
2018-04-18T07:44:15.095Z,7.95
2018-04-18T07:46:46.115Z,8.10
2018-04-18T07:49:24.112Z,8.32
2018-04-18T07:51:55.113Z,8.82
2018-04-18T07:54:26.133Z,8.93
2018-04-18T07:56:57.166Z,8.65
2018-04-18T07:59:28.185Z,8.77
2018-04-18T08:01:59.230Z,8.60
2018-04-18T08:04:30.243Z,10.20
2018-04-18T08:07:01.260Z,9.95
2018-04-18T08:09:32.241Z,8.70
2018-04-18T08:12:03.316Z,9.30
2018-04-18T08:14:34.322Z,9.40
2018-04-18T08:17:05.389Z,10.02
2018-04-18T08:19:36.469Z,10.43
2018-04-18T08:22:07.548Z,10.45
2018-04-18T08:24:38.593Z,10.70
2018-04-18T08:27:09.631Z,11.55
2018-04-18T08:29:40.645Z,12.13
2018-04-18T08:32:11.670Z,11.40
2018-04-18T08:34:42.668Z,11.27
2018-04-18T08:37:13.694Z,11.32
2018-04-18T08:39:44.667Z,11.80
2018-04-18T08:42:15.652Z,11.35
2018-04-18T08:44:46.678Z,10.73
2018-04-18T08:47:17.711Z,10.68
2018-04-18T08:49:48.844Z,11.82
2018-04-18T08:52:19.846Z,11.60
2018-04-18T08:54:50.913Z,11.10
2018-04-18T08:57:22.006Z,11.93
2018-04-18T08:59:53.042Z,11.32
2018-04-18T09:02:24.032Z,12.45
2018-04-18T09:04:55.025Z,12.63
2018-04-18T09:07:26.101Z,12.05
2018-04-18T09:09:57.096Z,12.02
2018-04-18T09:12:28.090Z,11.27
2018-04-18T09:14:59.082Z,11.90
2018-04-18T09:17:30.073Z,13.35
2018-04-18T09:20:01.104Z,12.57
2018-04-18T09:22:32.183Z,14.85
2018-04-18T09:25:03.222Z,14.13
2018-04-18T09:27:34.223Z,11.57
2018-04-18T09:30:05.303Z,11.88
2018-04-18T09:32:36.286Z,11.73
2018-04-18T09:35:07.327Z,11.07
2018-04-18T09:37:38.445Z,10.02
2018-04-18T09:40:09.472Z,11.70
2018-04-18T09:42:40.563Z,11.98
2018-04-18T09:45:11.561Z,11.20
2018-04-18T09:47:42.620Z,11.40
2018-04-18T09:50:13.624Z,10.77
2018-04-18T09:52:44.630Z,11.27
2018-04-18T09:55:15.635Z,10.52
2018-04-18T09:57:46.680Z,11.95
2018-04-18T10:00:17.756Z,10.10
2018-04-18T10:02:54.785Z,9.90
2018-04-18T10:05:25.830Z,10.63
2018-04-18T10:07:56.824Z,8.82
2018-04-18T10:10:27.898Z,9.38
2018-04-18T10:12:58.858Z,9.95
2018-04-18T10:15:29.906Z,9.88
2018-04-18T10:18:00.947Z,10.32
2018-04-18T10:20:31.955Z,8.20
2018-04-18T10:23:02.978Z,9.80
2018-04-18T10:25:34.066Z,9.75
2018-04-18T10:28:05.134Z,9.55
2018-04-18T10:30:36.142Z,9.80
2018-04-18T10:33:07.189Z,9.63
2018-04-18T10:35:38.164Z,8.32
2018-04-18T10:38:09.187Z,8.80
2018-04-18T10:40:40.198Z,8.25
2018-04-18T10:43:11.258Z,6.43
2018-04-18T10:45:42.261Z,7.87
2018-04-18T10:48:13.306Z,7.45
2018-04-18T10:50:44.269Z,7.60
2018-04-18T10:53:15.305Z,7.00
2018-04-18T10:55:46.312Z,7.00
2018-04-18T10:58:17.332Z,7.22
2018-04-18T11:00:48.356Z,7.68
2018-04-18T11:03:19.382Z,7.45
2018-04-18T11:05:50.441Z,6.72
2018-04-18T11:08:21.504Z,7.75
2018-04-18T11:10:52.490Z,8.20
2018-04-18T11:13:23.545Z,8.00
2018-04-18T11:15:54.575Z,8.53
2018-04-18T11:18:25.527Z,8.07
2018-04-18T11:20:56.483Z,8.13
2018-04-18T11:23:27.528Z,8.00
2018-04-18T11:25:58.506Z,7.33
2018-04-18T11:28:29.532Z,7.80
2018-04-18T11:31:00.539Z,7.97
2018-04-18T11:33:31.534Z,9.03
2018-04-18T11:36:02.541Z,8.87
2018-04-18T11:38:33.559Z,7.90
2018-04-18T11:41:04.567Z,6.23
2018-04-18T11:43:35.574Z,6.53
2018-04-18T11:46:06.560Z,5.97
2018-04-18T11:48:37.561Z,5.13
2018-04-18T11:51:08.594Z,7.87
2018-04-18T11:53:39.648Z,8.13
2018-04-18T11:56:10.653Z,8.33
2018-04-18T11:58:41.692Z,7.47
2018-04-18T12:01:12.731Z,8.83
2018-04-18T12:03:43.772Z,8.40
2018-04-18T12:06:14.775Z,7.97
2018-04-18T12:08:45.755Z,7.80
2018-04-18T12:11:16.756Z,8.90
2018-04-18T12:13:47.801Z,9.37
2018-04-18T12:16:18.843Z,8.53
2018-04-18T12:18:49.816Z,9.33
2018-04-18T12:21:20.825Z,10.60
2018-04-18T12:23:51.823Z,10.00
2018-04-18T12:26:22.831Z,10.17
2018-04-18T12:28:53.930Z,10.13
2018-04-18T12:31:24.952Z,9.47
2018-04-18T12:33:55.974Z,9.77
2018-04-18T12:36:26.950Z,9.60
2018-04-18T12:38:57.945Z,9.87
2018-04-18T12:41:28.988Z,10.27
2018-04-18T12:44:00.020Z,10.43
2018-04-18T12:46:31.019Z,10.07
2018-04-18T12:49:02.122Z,10.07
2018-04-18T12:51:33.080Z,9.60
2018-04-18T12:54:04.120Z,9.67
2018-04-18T12:56:35.156Z,9.87
2018-04-18T12:59:06.148Z,10.60
2018-04-18T13:01:37.178Z,9.10
2018-04-18T13:04:08.186Z,9.80
2018-04-18T13:06:39.228Z,10.13
2018-04-18T13:09:10.216Z,9.80
2018-04-18T13:11:41.231Z,10.00
2018-04-18T13:14:12.238Z,11.43
2018-04-18T13:16:43.238Z,10.47
2018-04-18T13:19:14.238Z,10.53
2018-04-18T13:21:45.256Z,9.83
2018-04-18T13:24:16.300Z,10.60
2018-04-18T13:26:47.291Z,11.80
2018-04-18T13:29:18.368Z,11.40
2018-04-18T13:31:49.457Z,10.23
2018-04-18T13:34:20.497Z,9.27
2018-04-18T13:36:51.553Z,10.47
2018-04-18T13:39:22.539Z,8.37
2018-04-18T13:41:53.539Z,10.23
2018-04-18T13:44:24.579Z,10.13
2018-04-18T13:46:55.581Z,9.30
2018-04-18T13:49:26.594Z,9.33
2018-04-18T13:51:57.636Z,8.80
2018-04-18T13:54:28.657Z,8.77
2018-04-18T13:56:59.706Z,8.30
2018-04-18T13:59:30.806Z,9.37
2018-04-18T14:02:01.835Z,9.07
2018-04-18T14:04:32.808Z,9.13
2018-04-18T14:07:03.852Z,8.77
2018-04-18T14:09:34.872Z,8.63
2018-04-18T14:12:05.889Z,8.07
2018-04-18T14:14:36.954Z,6.93
2018-04-18T14:17:07.996Z,7.13
2018-04-18T14:19:39.028Z,6.77
2018-04-18T14:22:10.127Z,7.30
2018-04-18T14:24:41.115Z,8.33
2018-04-18T14:27:12.148Z,7.50
2018-04-18T14:29:43.181Z,7.37
2018-04-18T14:32:14.187Z,7.10
2018-04-18T14:34:45.173Z,6.83
2018-04-18T14:37:16.170Z,7.33
2018-04-18T14:39:47.192Z,7.00
2018-04-18T14:42:18.247Z,8.17
2018-04-18T14:44:49.318Z,7.23
2018-04-18T14:47:20.380Z,8.03
2018-04-18T14:49:51.414Z,7.60
2018-04-18T14:52:22.443Z,7.77
2018-04-18T14:54:53.551Z,6.43
2018-04-18T14:57:24.532Z,7.67
2018-04-18T14:59:55.575Z,6.23
2018-04-18T15:02:26.645Z,6.20
2018-04-18T15:04:57.659Z,6.90
2018-04-18T15:07:28.623Z,7.20
2018-04-18T15:09:59.596Z,7.30
2018-04-18T15:12:30.566Z,6.53
2018-04-18T15:15:01.577Z,6.07
2018-04-18T15:17:32.626Z,6.10
2018-04-18T15:20:03.663Z,5.57
2018-04-18T15:22:34.672Z,5.60
2018-04-18T15:25:05.683Z,5.80
2018-04-18T15:27:36.679Z,5.33
2018-04-18T15:30:07.718Z,4.90
2018-04-18T15:32:38.775Z,4.53
2018-04-18T15:35:09.799Z,5.60
2018-04-18T15:37:40.864Z,6.03
2018-04-18T15:40:11.854Z,5.83
2018-04-18T15:42:42.889Z,6.23
2018-04-18T15:45:13.931Z,5.00
2018-04-18T15:47:44.947Z,5.57
2018-04-18T15:50:15.944Z,4.83
2018-04-18T15:52:47.004Z,5.70
2018-04-18T15:55:18.079Z,5.37
2018-04-18T15:57:49.066Z,5.50
2018-04-18T16:00:20.072Z,5.47
2018-04-18T16:02:51.214Z,4.77
2018-04-18T16:05:22.240Z,5.00
2018-04-18T16:07:53.278Z,5.20
2018-04-18T16:10:24.271Z,4.40
2018-04-18T16:12:55.216Z,4.57
2018-04-18T16:15:26.209Z,4.43
2018-04-18T16:17:57.185Z,5.27
2018-04-18T16:20:28.226Z,5.13
2018-04-18T16:22:59.262Z,5.33
2018-04-18T16:25:30.345Z,5.20
2018-04-18T16:28:01.383Z,6.40
2018-04-18T16:30:41.646Z,5.13
2018-04-18T16:33:12.690Z,5.10
2018-04-18T16:35:43.654Z,5.20
2018-04-18T16:38:14.642Z,4.77
2018-04-18T16:40:45.704Z,5.10
2018-04-18T16:43:16.682Z,5.23
2018-04-18T16:45:47.660Z,5.13
2018-04-18T16:48:18.685Z,4.80
2018-04-18T16:50:49.698Z,4.77
2018-04-18T16:53:20.713Z,4.50
2018-04-18T16:55:51.902Z,4.67
2018-04-18T16:58:22.918Z,5.40
2018-04-18T17:00:53.917Z,4.90
2018-04-18T17:03:24.916Z,4.40
2018-04-18T17:05:55.904Z,5.20
2018-04-18T17:08:27.028Z,5.53
2018-04-18T17:10:58.063Z,4.70
2018-04-18T17:13:29.168Z,4.57
2018-04-18T17:16:00.211Z,4.43
2018-04-18T17:18:31.314Z,4.60
2018-04-18T17:21:02.345Z,4.97
2018-04-18T17:23:33.400Z,5.00
2018-04-18T17:26:04.470Z,5.23
2018-04-18T17:28:35.476Z,4.87
2018-04-18T17:31:06.487Z,4.37
2018-04-18T17:33:37.485Z,5.03
2018-04-18T17:36:08.508Z,5.13
2018-04-18T17:38:39.552Z,5.40
2018-04-18T17:41:10.550Z,5.07
2018-04-18T17:43:41.555Z,5.40
2018-04-18T17:46:12.675Z,5.33
2018-04-18T17:48:43.767Z,5.27
2018-04-18T17:51:14.751Z,5.20
2018-04-18T17:53:45.767Z,5.70
2018-04-18T17:56:16.818Z,6.20
2018-04-18T17:58:47.849Z,5.30
2018-04-18T18:01:18.872Z,5.40
2018-04-18T18:03:49.882Z,5.60
2018-04-18T18:06:20.881Z,5.10
2018-04-18T18:08:51.889Z,5.20
2018-04-18T18:11:22.862Z,5.03
2018-04-18T18:13:53.869Z,5.60
2018-04-18T18:16:24.871Z,4.70
2018-04-18T18:18:55.869Z,5.43
2018-04-18T18:21:26.848Z,5.13
2018-04-18T18:23:57.870Z,5.93
2018-04-18T18:26:28.902Z,6.10
2018-04-18T18:28:59.944Z,5.40
2018-04-18T18:31:30.961Z,7.00
2018-04-18T18:34:01.973Z,7.17
2018-04-18T18:36:32.964Z,7.07
2018-04-18T18:39:04.018Z,6.17
2018-04-18T18:41:35.056Z,5.50
2018-04-18T18:44:06.135Z,5.80
2018-04-18T18:46:37.181Z,5.07
2018-04-18T18:49:08.168Z,5.90
2018-04-18T18:51:39.173Z,5.47
2018-04-18T18:54:10.214Z,6.03
2018-04-18T18:56:41.276Z,5.63
2018-04-18T18:59:12.268Z,5.83
2018-04-18T19:01:43.276Z,5.30
2018-04-18T19:04:14.313Z,6.63
2018-04-18T19:06:45.330Z,5.33
2018-04-18T19:09:16.382Z,6.17
2018-04-18T19:11:47.753Z,6.23
2018-04-18T19:14:18.746Z,6.43
2018-04-18T19:16:49.734Z,7.93
2018-04-18T19:19:20.732Z,7.03
2018-04-18T19:21:51.794Z,7.10
2018-04-18T19:24:22.810Z,7.87
2018-04-18T19:26:53.894Z,7.23
2018-04-18T19:29:24.951Z,7.57
2018-04-18T19:31:56.036Z,6.93
2018-04-18T19:34:27.018Z,7.23
2018-04-18T19:36:58.044Z,7.50
2018-04-18T19:39:29.092Z,7.60
2018-04-18T19:42:00.122Z,7.83
2018-04-18T19:44:31.213Z,8.13
2018-04-18T19:47:02.418Z,8.27
2018-04-18T19:49:33.386Z,8.70
2018-04-18T19:52:04.436Z,8.67
2018-04-18T19:54:35.446Z,8.43
2018-04-18T19:57:06.459Z,8.23
2018-04-18T19:59:37.460Z,8.33
2018-04-18T20:02:08.537Z,8.70
2018-04-18T20:04:39.535Z,9.00
2018-04-18T20:07:10.533Z,8.87
2018-04-18T20:09:41.519Z,8.40
2018-04-18T20:12:12.518Z,8.60
2018-04-18T20:14:43.555Z,8.40
2018-04-18T20:17:14.547Z,8.67
2018-04-18T20:19:45.615Z,8.60
2018-04-18T20:22:16.659Z,8.73
2018-04-18T20:24:47.694Z,8.70
2018-04-18T20:27:18.705Z,8.60
2018-04-18T20:29:49.708Z,8.60
2018-04-18T20:34:45.327Z,9.53
2018-04-18T20:37:16.349Z,8.93
2018-04-18T20:39:47.370Z,9.33
2018-04-18T20:42:18.361Z,9.30
2018-04-18T20:44:49.349Z,9.70
2018-04-18T20:47:20.364Z,9.37
2018-04-18T20:49:51.334Z,10.10
2018-04-18T20:52:22.326Z,11.07
2018-04-18T20:54:53.329Z,11.40
2018-04-18T20:57:24.360Z,12.10
2018-04-18T20:59:56.012Z,12.30
2018-04-18T21:02:41.944Z,10.70
2018-04-18T21:05:13.018Z,10.70
2018-04-18T21:07:44.036Z,10.70
2018-04-18T21:10:15.059Z,9.43
2018-04-18T21:12:46.024Z,9.50
2018-04-18T21:15:17.020Z,9.43
2018-04-18T21:17:48.043Z,8.57
2018-04-18T21:20:19.020Z,9.50
2018-04-18T21:22:49.991Z,10.80
2018-04-18T21:25:20.972Z,9.17
2018-04-18T21:27:52.004Z,8.80
2018-04-18T21:30:23.050Z,9.77
2018-04-18T21:32:54.020Z,7.70
2018-04-18T21:35:25.025Z,7.53
2018-04-18T21:37:56.010Z,8.30
2018-04-18T21:40:27.075Z,7.07
2018-04-18T21:42:58.040Z,7.07
2018-04-18T21:45:29.005Z,7.07
2018-04-18T21:47:59.964Z,7.77
2018-04-18T21:50:30.936Z,8.63
2018-04-18T21:53:01.868Z,7.97
2018-04-18T21:55:32.916Z,6.80
2018-04-18T21:58:03.886Z,7.87
2018-04-18T22:00:35.077Z,10.63
2018-04-18T22:03:06.075Z,8.83
2018-04-18T22:05:37.047Z,8.63
2018-04-18T22:08:08.081Z,9.53
2018-04-18T22:10:39.094Z,10.70
2018-04-18T22:13:10.088Z,9.27
2018-04-18T22:15:41.142Z,8.77
2018-04-18T22:18:12.167Z,10.07
2018-04-18T22:20:43.177Z,8.80
2018-04-18T22:23:14.205Z,10.10
2018-04-18T22:25:45.227Z,11.70
2018-04-18T22:28:16.340Z,10.77
2018-04-18T22:30:47.409Z,11.03
2018-04-18T22:33:18.450Z,10.83
2018-04-18T22:35:49.455Z,11.40
2018-04-18T22:38:20.435Z,11.93
2018-04-18T22:40:51.440Z,10.90
2018-04-18T22:43:22.449Z,11.03
2018-04-18T22:45:53.486Z,10.60
2018-04-18T22:48:24.463Z,9.80
2018-04-18T22:50:55.460Z,11.23
2018-04-18T22:53:26.444Z,11.63
2018-04-18T22:55:57.435Z,10.70
2018-04-18T22:58:28.478Z,11.07
2018-04-18T23:00:59.430Z,10.70
2018-04-18T23:03:30.452Z,12.10
2018-04-18T23:06:01.471Z,10.70
2018-04-18T23:08:32.434Z,11.03
2018-04-18T23:11:03.448Z,9.80
2018-04-18T23:13:34.420Z,10.60
2018-04-18T23:16:05.461Z,11.13
2018-04-18T23:18:36.468Z,10.37
2018-04-18T23:21:07.509Z,11.10
2018-04-18T23:23:38.453Z,11.30
2018-04-18T23:26:09.473Z,11.10
2018-04-18T23:28:40.469Z,10.70
2018-04-18T23:31:11.430Z,10.27
2018-04-18T23:33:42.471Z,11.80
2018-04-18T23:36:13.499Z,11.33
2018-04-18T23:38:44.523Z,11.70
2018-04-18T23:41:15.520Z,11.30
2018-04-18T23:43:46.500Z,10.87
2018-04-18T23:46:17.473Z,10.80
2018-04-18T23:48:48.506Z,10.93
2018-04-18T23:51:19.541Z,11.67
2018-04-18T23:53:50.544Z,12.00
2018-04-18T23:56:21.598Z,11.57
2018-04-18T23:58:52.589Z,11.43
